Time;durP1;ratioP1;P1;durP2;ratioP2;P2;SDS_P1;SDS_P2;PMS_P1;PMS_P2;Temp;Humidity;BMP_temperature;BMP_pressure;BME280_temperature;BME280_humidity;BME280_pressure;Samples;Min_cycle;Max_cycle;Signal;HPM_P1;HPM_P2
2022/03/18 00:00:21;;;;;;;8.83;4.03;;;5.60;99.90;;;;;;4995256;28;20196;-76
2022/03/18 00:02:52;;;;;;;9.40;4.20;;;5.60;99.90;;;;;;4995083;28;20175;-76
2022/03/18 00:05:18;;;;;;;7.17;3.90;;;5.50;99.90;;;;;;4978061;28;20171;-76
2022/03/18 00:07:46;;;;;;;8.97;4.10;;;5.50;99.90;;;;;;4961756;28;20176;-76
2022/03/18 00:10:13;;;;;;;8.00;4.20;;;5.50;99.90;;;;;;4962086;28;20621;-77
2022/03/18 00:12:39;;;;;;;7.60;4.00;;;5.50;99.90;;;;;;4977433;28;20207;-77
2022/03/18 00:15:10;;;;;;;10.60;4.67;;;5.40;99.90;;;;;;4961762;28;20552;-77
2022/03/18 00:17:36;;;;;;;7.63;4.20;;;5.50;99.90;;;;;;4961625;28;20226;-76
2022/03/18 00:20:07;;;;;;;8.97;4.50;;;5.50;99.90;;;;;;4977689;28;20226;-76
2022/03/18 00:22:33;;;;;;;9.93;4.50;;;5.50;99.90;;;;;;4961296;28;20176;-76
2022/03/18 00:24:59;;;;;;;8.73;4.63;;;5.50;99.90;;;;;;4977547;28;20187;-77
2022/03/18 00:27:26;;;;;;;9.63;4.60;;;5.40;99.90;;;;;;4945708;28;20180;-76
2022/03/18 00:29:52;;;;;;;9.17;4.40;;;5.40;99.90;;;;;;4994727;28;20189;-76
2022/03/18 00:32:18;;;;;;;8.77;4.80;;;5.40;99.90;;;;;;4976956;28;20204;-76
2022/03/18 00:34:43;;;;;;;11.27;4.60;;;5.50;99.90;;;;;;4994865;28;20172;-76
2022/03/18 00:37:09;;;;;;;8.53;4.63;;;5.50;99.90;;;;;;4960809;28;20693;-76
2022/03/18 00:39:35;;;;;;;8.73;4.27;;;5.40;99.90;;;;;;4945259;28;20250;-77
2022/03/18 00:42:02;;;;;;;11.03;4.60;;;5.40;99.90;;;;;;4961238;28;20279;-76
2022/03/18 00:44:27;;;;;;;10.00;5.30;;;5.30;99.90;;;;;;4945122;28;20190;-76
2022/03/18 00:46:53;;;;;;;9.47;4.90;;;5.20;99.90;;;;;;4976881;28;20183;-76
2022/03/18 00:52:07;;;;;;;8.37;4.43;;;5.20;99.90;;;;;;4979762;28;20210;-76
2022/03/18 00:54:39;;;;;;;9.33;4.53;;;5.20;99.90;;;;;;4976905;28;20268;-76
2022/03/18 00:57:06;;;;;;;7.13;4.37;;;5.20;99.90;;;;;;4976840;28;20544;-76
2022/03/18 00:59:32;;;;;;;8.50;5.03;;;5.20;99.90;;;;;;4960720;28;20198;-76
2022/03/18 01:01:58;;;;;;;11.70;5.20;;;5.20;99.90;;;;;;4960594;28;20184;-76
2022/03/18 01:04:26;;;;;;;9.63;4.87;;;5.20;99.90;;;;;;4960873;28;20180;-76
2022/03/18 01:06:52;;;;;;;8.87;4.43;;;5.20;99.90;;;;;;4960906;28;20555;-77
2022/03/18 01:09:20;;;;;;;11.67;5.07;;;5.20;99.90;;;;;;4960452;28;20685;-76
2022/03/18 01:11:46;;;;;;;10.43;4.57;;;5.20;99.90;;;;;;4976260;28;20203;-76
2022/03/18 01:14:12;;;;;;;7.23;4.20;;;5.20;99.90;;;;;;4944705;28;20172;-76
2022/03/18 01:16:37;;;;;;;9.70;4.97;;;5.20;99.90;;;;;;4960762;28;20673;-77
2022/03/18 01:19:03;;;;;;;9.07;5.27;;;5.20;99.90;;;;;;4976378;28;20204;-76
2022/03/18 01:21:29;;;;;;;9.87;5.07;;;5.20;99.90;;;;;;4944157;28;20673;-76
2022/03/18 01:23:54;;;;;;;9.67;4.57;;;5.20;99.90;;;;;;4944276;28;20180;-76
2022/03/18 01:26:20;;;;;;;10.67;4.40;;;5.20;99.90;;;;;;4976287;28;20183;-76
2022/03/18 01:28:45;;;;;;;10.10;4.73;;;5.10;99.90;;;;;;4960419;28;20202;-76
2022/03/18 01:31:11;;;;;;;10.43;4.70;;;5.00;99.90;;;;;;4959932;28;20601;-76
2022/03/18 01:33:37;;;;;;;9.23;4.90;;;5.00;99.90;;;;;;4944204;28;20173;-76
2022/03/18 01:36:06;;;;;;;8.80;5.83;;;5.00;99.90;;;;;;4960152;28;20181;-76
2022/03/18 01:38:31;;;;;;;10.33;5.20;;;4.90;99.90;;;;;;4960451;28;20195;-76
2022/03/18 01:40:57;;;;;;;10.13;4.97;;;4.80;99.90;;;;;;4959896;28;20180;-76
2022/03/18 01:43:23;;;;;;;10.93;4.83;;;4.90;99.90;;;;;;4959830;28;20175;-76
2022/03/18 01:45:51;;;;;;;9.60;5.10;;;4.90;99.90;;;;;;4976042;28;20190;-76
2022/03/18 01:48:20;;;;;;;9.90;4.67;;;4.90;99.90;;;;;;4959237;28;20234;-76
2022/03/18 01:50:45;;;;;;;12.13;5.03;;;4.80;99.90;;;;;;4975830;28;20227;-76
2022/03/18 01:53:11;;;;;;;13.23;5.63;;;4.80;99.90;;;;;;4975849;28;20197;-76
2022/03/18 01:55:38;;;;;;;10.57;4.50;;;4.70;99.90;;;;;;4993231;28;20724;-76
2022/03/18 01:58:04;;;;;;;12.90;5.10;;;4.70;99.90;;;;;;4975629;28;20226;-76
2022/03/18 02:00:31;;;;;;;11.53;5.40;;;4.70;99.90;;;;;;4975900;28;20230;-76
2022/03/18 02:02:57;;;;;;;8.73;5.13;;;4.70;99.90;;;;;;4975559;28;20172;-76
2022/03/18 02:05:24;;;;;;;10.10;5.07;;;4.70;99.90;;;;;;4959987;28;20199;-76
2022/03/18 02:07:49;;;;;;;11.37;5.20;;;4.80;99.90;;;;;;4943685;28;20233;-76
2022/03/18 02:10:15;;;;;;;11.90;5.03;;;4.80;99.90;;;;;;4975534;28;20278;-76
2022/03/18 02:12:41;;;;;;;11.90;5.60;;;4.80;99.90;;;;;;4943281;28;20273;-76
2022/03/18 02:15:09;;;;;;;11.63;5.43;;;4.80;99.90;;;;;;4943533;28;20187;-76
2022/03/18 02:17:35;;;;;;;13.93;5.83;;;4.70;99.90;;;;;;4975523;28;20646;-77
2022/03/18 02:20:00;;;;;;;13.77;5.23;;;4.70;99.90;;;;;;4975411;28;20202;-76
2022/03/18 02:22:26;;;;;;;10.53;5.30;;;4.80;99.90;;;;;;4975392;28;20182;-76
2022/03/18 02:24:54;;;;;;;10.67;5.43;;;4.70;99.90;;;;;;4959422;28;20270;-76
2022/03/18 02:27:20;;;;;;;11.80;5.70;;;4.60;99.90;;;;;;4959333;28;20275;-76
2022/03/18 02:29:46;;;;;;;12.77;5.93;;;4.60;99.90;;;;;;4992677;28;20574;-76
2022/03/18 02:32:16;;;;;;;12.07;5.87;;;4.70;99.90;;;;;;4959314;28;20235;-76
2022/03/18 02:34:42;;;;;;;8.20;4.90;;;4.60;99.90;;;;;;4975254;28;20218;-76
2022/03/18 02:37:09;;;;;;;8.73;5.13;;;4.50;99.90;;;;;;4959438;28;20177;-76
2022/03/18 02:39:35;;;;;;;6.90;4.97;;;4.50;99.90;;;;;;4992698;28;20199;-76
2022/03/18 02:42:01;;;;;;;10.80;5.90;;;4.60;99.90;;;;;;4975099;28;20201;-76
2022/03/18 02:44:26;;;;;;;12.23;6.00;;;4.60;99.90;;;;;;4975192;28;20647;-76
2022/03/18 02:46:52;;;;;;;11.00;5.83;;;4.70;99.90;;;;;;4943297;28;20192;-76
2022/03/18 02:49:19;;;;;;;9.87;5.23;;;4.50;99.90;;;;;;5010677;23;20222;-76
2022/03/18 02:51:45;;;;;;;12.07;5.33;;;4.60;99.90;;;;;;5011834;28;20286;-76
2022/03/18 02:54:12;;;;;;;10.63;5.50;;;4.50;99.90;;;;;;4994509;28;20266;-76
2022/03/18 02:56:38;;;;;;;11.47;5.60;;;4.50;99.90;;;;;;5011020;28;20191;-76
2022/03/18 02:59:04;;;;;;;12.37;5.90;;;4.50;99.90;;;;;;4994739;28;20564;-76
2022/03/18 03:01:31;;;;;;;12.83;5.10;;;4.40;99.90;;;;;;4982080;28;20488;-76
2022/03/18 03:03:57;;;;;;;11.00;5.87;;;4.40;99.90;;;;;;5014749;28;20268;-76
2022/03/18 03:09:07;;;;;;;10.77;5.13;;;4.40;99.90;;;;;;5016231;28;20210;-76
2022/03/18 03:11:34;;;;;;;10.80;5.37;;;4.30;99.90;;;;;;4981889;28;20206;-76
2022/03/18 03:14:00;;;;;;;11.70;5.53;;;4.20;99.90;;;;;;5015813;28;20174;-76
2022/03/18 03:16:26;;;;;;;10.60;5.47;;;4.20;99.90;;;;;;5014707;28;20178;-76
2022/03/18 03:18:52;;;;;;;9.63;5.20;;;4.10;99.90;;;;;;5014340;28;20202;-76
2022/03/18 03:21:18;;;;;;;10.50;4.90;;;4.00;99.90;;;;;;4997897;28;20218;-76
2022/03/18 03:23:44;;;;;;;11.07;5.13;;;3.90;99.90;;;;;;4998260;28;20214;-76
2022/03/18 03:26:11;;;;;;;12.27;5.20;;;4.00;99.90;;;;;;4998197;28;20186;-76
2022/03/18 03:28:37;;;;;;;9.57;4.43;;;4.00;99.90;;;;;;5014409;28;20222;-76
2022/03/18 03:31:03;;;;;;;8.97;4.30;;;4.00;99.90;;;;;;5015462;28;20186;-76
2022/03/18 03:33:30;;;;;;;8.17;4.47;;;4.10;99.90;;;;;;5014026;28;20170;-76
2022/03/18 03:35:56;;;;;;;7.83;4.77;;;4.10;99.90;;;;;;4998207;28;20189;-76
2022/03/18 03:38:23;;;;;;;10.43;4.00;;;4.10;99.90;;;;;;4998069;28;20181;-76
2022/03/18 03:40:49;;;;;;;10.13;4.43;;;4.10;99.90;;;;;;4982036;28;20186;-76
2022/03/18 03:43:15;;;;;;;9.20;3.77;;;4.00;99.90;;;;;;5013772;28;20171;-76
2022/03/18 03:45:40;;;;;;;8.63;4.13;;;4.00;99.90;;;;;;5014068;28;20189;-76
2022/03/18 03:48:07;;;;;;;7.57;3.97;;;4.00;99.90;;;;;;4997603;28;20184;-76
2022/03/18 03:50:34;;;;;;;8.77;4.10;;;3.90;99.90;;;;;;4997598;28;20583;-76
2022/03/18 03:53:00;;;;;;;8.60;3.97;;;3.90;99.90;;;;;;4997563;28;20178;-76
2022/03/18 03:55:26;;;;;;;10.33;3.77;;;3.80;99.90;;;;;;5013898;28;20586;-76
2022/03/18 03:57:52;;;;;;;9.20;4.10;;;3.80;99.90;;;;;;5013836;28;20185;-76
2022/03/18 04:00:18;;;;;;;6.70;3.97;;;3.80;99.90;;;;;;4997241;28;20198;-76
2022/03/18 04:02:44;;;;;;;8.50;3.90;;;3.70;99.90;;;;;;5013513;28;20177;-76
2022/03/18 04:05:10;;;;;;;11.93;4.83;;;3.60;99.90;;;;;;4997097;28;20628;-76
2022/03/18 04:07:37;;;;;;;11.47;4.50;;;3.60;99.90;;;;;;5013768;28;20169;-76
2022/03/18 04:10:04;;;;;;;9.70;4.43;;;3.60;99.90;;;;;;5014756;28;20227;-76
2022/03/18 04:12:32;;;;;;;8.50;3.97;;;3.60;99.90;;;;;;5012366;28;20232;-76
2022/03/18 04:14:58;;;;;;;11.30;4.17;;;3.60;99.90;;;;;;4997513;28;20184;-76
2022/03/18 04:17:26;;;;;;;13.07;4.27;;;3.50;99.90;;;;;;4996999;28;20177;-76
2022/03/18 04:19:53;;;;;;;10.07;4.33;;;3.50;99.90;;;;;;4997267;28;20300;-76
2022/03/18 04:22:21;;;;;;;7.57;4.03;;;3.50;99.90;;;;;;4997194;28;20187;-76
2022/03/18 04:24:47;;;;;;;10.40;4.60;;;3.50;99.90;;;;;;4981326;28;20175;-76
2022/03/18 04:27:12;;;;;;;8.47;4.00;;;3.50;99.90;;;;;;4996929;28;20235;-76
2022/03/18 04:29:38;;;;;;;8.87;4.10;;;3.50;99.90;;;;;;4980664;28;20334;-76
2022/03/18 04:32:04;;;;;;;10.13;4.47;;;3.50;99.90;;;;;;4980681;28;20217;-76
2022/03/18 04:34:30;;;;;;;9.50;4.53;;;3.50;99.90;;;;;;4980774;28;20554;-76
2022/03/18 04:36:55;;;;;;;7.90;4.07;;;3.50;99.90;;;;;;4980585;28;20184;-76
2022/03/18 04:39:21;;;;;;;8.20;3.67;;;3.50;99.90;;;;;;4996756;28;20639;-76
2022/03/18 04:41:47;;;;;;;8.50;4.27;;;3.50;99.90;;;;;;4980330;28;20284;-76
2022/03/18 04:44:12;;;;;;;7.70;3.93;;;3.60;99.90;;;;;;4996669;28;20285;-76
2022/03/18 04:46:38;;;;;;;9.30;4.40;;;3.50;99.90;;;;;;4980684;28;20187;-76
2022/03/18 04:49:04;;;;;;;12.17;4.17;;;3.60;99.90;;;;;;4980520;28;20223;-76
2022/03/18 04:51:30;;;;;;;9.47;4.00;;;3.50;99.90;;;;;;5012573;28;20195;-76
2022/03/18 04:53:57;;;;;;;8.67;4.57;;;3.60;99.90;;;;;;4980586;28;20559;-76
2022/03/18 04:59:06;;;;;;;8.90;4.43;;;3.50;99.90;;;;;;4999249;28;20613;-76
2022/03/18 05:01:32;;;;;;;8.80;4.30;;;3.50;99.90;;;;;;4996429;28;20709;-76
2022/03/18 05:03:57;;;;;;;8.57;4.07;;;3.50;99.90;;;;;;4996574;28;20186;-76
2022/03/18 05:06:24;;;;;;;9.63;4.27;;;3.50;99.90;;;;;;4980177;28;20182;-76
2022/03/18 05:08:49;;;;;;;9.97;4.17;;;3.50;99.90;;;;;;4996251;28;20204;-76
2022/03/18 05:11:15;;;;;;;6.97;4.13;;;3.50;99.90;;;;;;4979702;28;20586;-76
2022/03/18 05:13:42;;;;;;;8.83;4.00;;;3.50;99.90;;;;;;4979760;28;20180;-76
2022/03/18 05:16:08;;;;;;;9.17;4.90;;;3.40;99.90;;;;;;5012647;28;20176;-76
2022/03/18 05:18:33;;;;;;;9.90;4.23;;;3.40;99.90;;;;;;4979877;28;20184;-76
2022/03/18 05:20:59;;;;;;;9.50;4.20;;;3.30;99.90;;;;;;4979832;28;20181;-76
2022/03/18 05:23:24;;;;;;;9.50;4.23;;;3.30;99.90;;;;;;4979597;28;20657;-76
2022/03/18 05:25:50;;;;;;;11.23;4.80;;;3.30;99.90;;;;;;4979620;28;20238;-76
2022/03/18 05:28:17;;;;;;;8.30;4.63;;;3.30;99.90;;;;;;4995726;28;20193;-76
2022/03/18 05:30:44;;;;;;;7.80;4.43;;;3.30;99.90;;;;;;4980240;28;20224;-76
2022/03/18 05:33:09;;;;;;;8.90;4.50;;;3.40;99.90;;;;;;5012113;28;20205;-76
2022/03/18 05:35:35;;;;;;;10.93;4.13;;;3.30;99.90;;;;;;5012128;28;20225;-76
2022/03/18 05:38:01;;;;;;;6.67;4.00;;;3.30;99.90;;;;;;4995682;28;20193;-76
2022/03/18 05:40:27;;;;;;;13.73;4.73;;;3.30;99.90;;;;;;4995340;28;20210;-76
2022/03/18 05:42:52;;;;;;;12.17;4.33;;;3.40;99.90;;;;;;4995511;28;20188;-76
2022/03/18 05:45:18;;;;;;;11.17;5.13;;;3.40;99.90;;;;;;4995807;28;20566;-76
2022/03/18 05:47:44;;;;;;;10.20;4.53;;;3.40;99.90;;;;;;4979705;28;20184;-77
2022/03/18 05:50:15;;;;;;;9.63;5.10;;;3.40;99.90;;;;;;4995788;28;20212;-77
2022/03/18 05:52:41;;;;;;;7.57;4.07;;;3.40;99.90;;;;;;4995976;28;20345;-77
2022/03/18 05:55:07;;;;;;;5.67;3.93;;;3.40;99.90;;;;;;4995403;28;20179;-77
2022/03/18 05:57:33;;;;;;;7.87;4.20;;;3.50;99.90;;;;;;5011596;28;20189;-76
2022/03/18 06:00:00;;;;;;;10.87;4.67;;;3.50;99.90;;;;;;5012019;28;20201;-74
2022/03/18 06:02:25;;;;;;;9.87;3.83;;;3.70;99.90;;;;;;4979316;28;20185;-77
2022/03/18 06:04:51;;;;;;;10.83;4.47;;;3.80;99.90;;;;;;4995423;28;20185;-76
2022/03/18 06:07:17;;;;;;;7.33;4.20;;;4.10;99.90;;;;;;4995237;28;20220;-76
2022/03/18 06:12:28;;;;;;;10.33;4.93;;;4.80;99.90;;;;;;5011476;28;20758;-76
2022/03/18 06:14:54;;;;;;;7.13;4.30;;;4.70;99.90;;;;;;4995344;28;20185;-76
2022/03/18 06:17:20;;;;;;;11.07;4.20;;;4.60;99.90;;;;;;5011346;28;20265;-76
2022/03/18 06:19:45;;;;;;;10.20;4.07;;;4.50;99.90;;;;;;5011464;28;20202;-76
2022/03/18 06:22:11;;;;;;;10.23;4.50;;;4.20;99.90;;;;;;5011016;28;20197;-77
2022/03/18 06:24:37;;;;;;;7.50;3.80;;;4.10;99.90;;;;;;5011501;28;20657;-77
2022/03/18 06:27:03;;;;;;;11.50;4.57;;;4.00;99.90;;;;;;5011423;28;20641;-76
2022/03/18 06:29:30;;;;;;;9.50;4.67;;;3.90;99.90;;;;;;5011229;28;20194;-77
2022/03/18 06:31:56;;;;;;;8.50;4.03;;;3.80;99.90;;;;;;5011134;28;20195;-77
2022/03/18 06:34:22;;;;;;;10.73;4.13;;;3.70;99.90;;;;;;4978372;28;20635;-77
2022/03/18 06:36:50;;;;;;;9.83;4.40;;;3.70;99.90;;;;;;5011151;28;20257;-77
2022/03/18 06:39:16;;;;;;;12.60;4.37;;;3.70;99.90;;;;;;4994934;28;20201;-76
2022/03/18 06:41:41;;;;;;;8.30;4.40;;;3.70;99.90;;;;;;4978608;28;20626;-75
2022/03/18 06:44:08;;;;;;;10.13;5.37;;;3.80;99.90;;;;;;4977638;28;20964;-75
2022/03/18 06:46:34;;;;;;;10.30;4.97;;;3.70;99.90;;;;;;4994927;28;20185;-75
2022/03/18 06:49:00;;;;;;;9.13;4.73;;;3.70;99.90;;;;;;4994570;28;20676;-75
2022/03/18 06:51:26;;;;;;;9.53;4.50;;;3.80;99.90;;;;;;4978260;28;20201;-75
2022/03/18 06:53:51;;;;;;;10.80;4.50;;;3.70;99.90;;;;;;5011338;28;20189;-76
2022/03/18 06:56:17;;;;;;;11.73;4.87;;;3.70;99.90;;;;;;5011228;28;20609;-75
2022/03/18 06:58:43;;;;;;;10.70;4.50;;;3.70;99.90;;;;;;4994922;28;20193;-77
2022/03/18 07:01:09;;;;;;;10.27;4.57;;;3.70;99.90;;;;;;4978801;28;20272;-75
2022/03/18 07:03:35;;;;;;;8.20;4.30;;;3.80;99.90;;;;;;5011051;28;20281;-76
2022/03/18 07:06:01;;;;;;;11.23;4.60;;;3.80;99.90;;;;;;4979044;28;20180;-75
2022/03/18 07:08:26;;;;;;;11.33;4.53;;;3.80;99.90;;;;;;4994595;28;20185;-76
2022/03/18 07:10:52;;;;;;;11.07;4.83;;;3.90;99.90;;;;;;4994386;28;20189;-75
2022/03/18 07:13:18;;;;;;;10.03;4.70;;;3.90;99.90;;;;;;4978416;28;20180;-75
2022/03/18 07:15:44;;;;;;;8.00;4.53;;;3.90;99.90;;;;;;4994697;28;20176;-75
2022/03/18 07:18:10;;;;;;;7.73;4.40;;;3.80;99.90;;;;;;5010805;28;20665;-76
2022/03/18 07:20:37;;;;;;;7.93;4.03;;;3.80;99.90;;;;;;5010957;28;20196;-76
2022/03/18 07:23:11;;;;;;;10.97;4.30;;;3.80;99.90;;;;;;4994627;28;20186;-76
2022/03/18 07:25:48;;;;;;;10.73;4.80;;;3.80;99.90;;;;;;4994416;28;20179;-76
2022/03/18 07:28:15;;;;;;;11.13;4.40;;;3.90;99.90;;;;;;4978382;28;20181;-76
2022/03/18 07:30:43;;;;;;;9.47;4.00;;;3.90;99.90;;;;;;4994499;28;20183;-76
2022/03/18 07:33:09;;;;;;;9.43;4.30;;;3.90;99.90;;;;;;4994225;28;20180;-76
2022/03/18 07:35:35;;;;;;;8.27;4.07;;;4.00;99.90;;;;;;5010916;28;20183;-76
2022/03/18 07:38:02;;;;;;;10.53;4.57;;;3.90;99.90;;;;;;4994450;28;20181;-76
2022/03/18 07:40:29;;;;;;;10.70;4.60;;;4.00;99.90;;;;;;4978479;28;20205;-76
2022/03/18 07:42:56;;;;;;;10.17;4.33;;;4.10;99.90;;;;;;5010479;28;20177;-76
2022/03/18 07:45:30;;;;;;;7.30;4.37;;;4.10;99.90;;;;;;4978291;28;20248;-77
2022/03/18 07:48:01;;;;;;;12.50;4.37;;;4.00;99.90;;;;;;4981535;28;20545;-76
2022/03/18 07:50:29;;;;;;;7.70;4.07;;;4.10;99.90;;;;;;4997828;28;20224;-76
2022/03/18 07:52:57;;;;;;;8.20;4.60;;;4.10;99.90;;;;;;4997562;28;20683;-76
2022/03/18 07:55:24;;;;;;;10.93;4.43;;;4.20;99.90;;;;;;5014194;28;20257;-77
2022/03/18 07:57:51;;;;;;;10.27;4.47;;;4.30;99.90;;;;;;4997546;28;20230;-76
2022/03/18 08:00:17;;;;;;;12.47;4.37;;;4.30;99.90;;;;;;5013652;28;20202;-76
2022/03/18 08:02:44;;;;;;;11.63;6.30;;;4.30;99.90;;;;;;4997541;28;20184;-78
2022/03/18 08:05:11;;;;;;;13.47;6.50;;;4.40;99.90;;;;;;5013958;28;20185;-75
2022/03/18 08:07:37;;;;;;;13.20;5.43;;;4.40;99.90;;;;;;4997552;28;20549;-75
2022/03/18 08:10:04;;;;;;;16.97;6.73;;;4.50;99.90;;;;;;4981085;28;20202;-75
2022/03/18 08:12:31;;;;;;;13.57;4.77;;;4.60;99.90;;;;;;5013230;28;20195;-75
2022/03/18 08:15:03;;;;;;;35.13;15.37;;;4.70;99.90;;;;;;4981160;28;20261;-76
2022/03/18 08:17:28;;;;;;;12.63;5.73;;;4.70;99.90;;;;;;4997957;28;20182;-75
2022/03/18 08:19:54;;;;;;;17.90;15.07;;;4.70;99.90;;;;;;4997537;28;20200;-76
2022/03/18 08:22:21;;;;;;;10.57;5.07;;;4.70;99.90;;;;;;4997373;28;20181;-75
2022/03/18 08:24:48;;;;;;;9.13;4.63;;;4.80;99.90;;;;;;4997318;28;20185;-76
2022/03/18 08:27:14;;;;;;;36.97;16.67;;;4.90;99.90;;;;;;5013379;28;20181;-76
2022/03/18 08:29:39;;;;;;;16.13;8.20;;;5.00;99.90;;;;;;5013583;28;20195;-78
2022/03/18 08:32:06;;;;;;;16.27;7.43;;;5.20;99.90;;;;;;4997037;28;20310;-76
2022/03/18 08:34:32;;;;;;;8.60;4.17;;;5.40;99.90;;;;;;4997116;28;20528;-75
2022/03/18 08:36:58;;;;;;;9.20;4.50;;;5.60;99.90;;;;;;5013190;28;20181;-76
2022/03/18 08:39:24;;;;;;;11.27;6.00;;;5.90;99.90;;;;;;4996784;28;20190;-76
2022/03/18 08:41:50;;;;;;;9.83;5.30;;;6.00;99.90;;;;;;4980403;28;20178;-75
2022/03/18 08:44:19;;;;;;;5.83;3.40;;;6.30;99.90;;;;;;4996925;28;20266;-76
2022/03/18 08:46:46;;;;;;;6.73;3.83;;;6.50;99.90;;;;;;5013105;28;20175;-76
2022/03/18 08:50:08;;;;;;;7.17;4.37;;;6.70;99.90;;;;;;4997458;28;20312;-76
2022/03/18 15:12:21;;;;;;;5.93;2.80;;;15.50;75.90;;;;;;5275947;23;20215;-78
2022/03/18 15:14:47;;;;;;;4.10;2.57;;;15.40;79.70;;;;;;4979066;28;20180;-77
2022/03/18 15:17:14;;;;;;;3.97;2.50;;;15.00;80.10;;;;;;4978991;28;20172;-77
2022/03/18 15:19:40;;;;;;;3.97;2.60;;;14.70;75.80;;;;;;4994114;28;20172;-78
2022/03/18 15:22:06;;;;;;;15.53;10.13;;;14.80;77.20;;;;;;4994272;28;20207;-78
2022/03/18 15:24:35;;;;;;;25.37;16.50;;;15.00;77.80;;;;;;4993991;28;20172;-78
2022/03/18 15:27:02;;;;;;;6.83;4.57;;;14.80;76.50;;;;;;4962619;28;20183;-77
2022/03/18 15:29:28;;;;;;;8.13;6.40;;;14.90;76.00;;;;;;4993968;28;20200;-77
2022/03/18 15:31:55;;;;;;;5.17;3.97;;;14.50;77.80;;;;;;4977726;28;20266;-77
2022/03/18 15:34:21;;;;;;;5.10;3.47;;;14.60;79.70;;;;;;4978487;28;20250;-78
2022/03/18 15:36:46;;;;;;;6.13;4.07;;;14.60;80.90;;;;;;4978883;28;20184;-77
2022/03/18 15:39:12;;;;;;;5.97;3.50;;;14.70;79.90;;;;;;4962177;28;20187;-78
2022/03/18 15:41:38;;;;;;;5.50;3.50;;;15.20;79.70;;;;;;4974785;28;20259;-77
2022/03/18 15:44:05;;;;;;;6.77;4.80;;;15.40;77.70;;;;;;4978619;28;20294;-77
2022/03/18 15:46:34;;;;;;;4.50;2.83;;;15.10;75.20;;;;;;4996808;28;20171;-78
2022/03/18 15:49:01;;;;;;;4.07;3.00;;;15.40;77.00;;;;;;4979777;28;20176;-77
2022/03/18 15:51:28;;;;;;;3.73;2.93;;;15.80;75.30;;;;;;4994955;28;20271;-77
2022/03/18 15:53:55;;;;;;;4.77;2.93;;;16.10;69.60;;;;;;4978994;28;20663;-76
2022/03/18 15:56:21;;;;;;;4.10;2.93;;;15.70;66.50;;;;;;4994772;28;20638;-77
2022/03/18 15:58:48;;;;;;;4.77;3.23;;;15.70;66.60;;;;;;4995323;28;20274;-77
2022/03/18 16:01:14;;;;;;;6.53;2.77;;;15.50;66.90;;;;;;4961873;28;20184;-77
2022/03/18 16:03:40;;;;;;;3.23;2.33;;;14.80;67.90;;;;;;4995666;28;20250;-78
2022/03/18 16:06:14;;;;;;;4.63;3.20;;;15.10;69.00;;;;;;4976772;28;20180;-77
2022/03/18 16:08:40;;;;;;;5.63;3.60;;;15.30;69.40;;;;;;4978009;28;20172;-76
2022/03/18 16:11:06;;;;;;;4.53;2.90;;;15.20;66.60;;;;;;4978219;28;20554;-77
2022/03/18 16:13:32;;;;;;;7.50;4.87;;;14.80;64.10;;;;;;4994028;28;20218;-76
2022/03/18 16:15:58;;;;;;;6.83;4.50;;;14.60;65.50;;;;;;4994689;28;20176;-74
2022/03/18 16:18:34;;;;;;;3.33;2.50;;;14.00;63.70;;;;;;4991529;28;20620;-77
2022/03/18 16:21:03;;;;;;;3.30;2.20;;;13.50;65.10;;;;;;4991749;28;20172;-77
2022/03/18 16:23:30;;;;;;;4.70;3.13;;;13.00;66.60;;;;;;4975953;28;20204;-76
2022/03/18 16:25:56;;;;;;;4.20;3.10;;;12.90;69.30;;;;;;4994107;28;20172;-77
2022/03/18 16:28:22;;;;;;;6.80;4.80;;;13.40;68.70;;;;;;4992360;28;20183;-77
2022/03/18 16:30:50;;;;;;;3.97;3.20;;;13.40;69.00;;;;;;4976042;28;20234;-76
2022/03/18 16:33:17;;;;;;;2.53;2.33;;;13.60;70.20;;;;;;4991404;28;20199;-76
2022/03/18 16:35:42;;;;;;;3.13;2.33;;;13.40;68.30;;;;;;4992771;28;20176;-76
2022/03/18 16:38:09;;;;;;;3.63;2.37;;;12.90;67.70;;;;;;4991573;28;20187;-77
2022/03/18 16:40:37;;;;;;;5.47;2.67;;;13.00;68.70;;;;;;4959094;28;20184;-78
2022/03/18 16:43:03;;;;;;;3.37;2.60;;;13.20;70.30;;;;;;4991206;28;20207;-79
2022/03/18 16:45:30;;;;;;;4.53;2.47;;;13.20;68.00;;;;;;4991658;28;20330;-78
2022/03/18 16:50:40;;;;;;;3.43;2.37;;;12.50;68.00;;;;;;4992352;28;20249;-85
2022/03/18 16:53:08;;;;;;;6.63;5.67;;;12.50;69.30;;;;;;4975136;28;20204;-78
2022/03/18 16:55:35;;;;;;;4.00;2.20;;;12.50;70.00;;;;;;4992421;28;20172;-76
2022/03/18 16:58:01;;;;;;;4.13;2.20;;;12.50;72.80;;;;;;4975257;28;20223;-77
2022/03/18 17:00:29;;;;;;;2.50;1.80;;;12.60;73.30;;;;;;4975470;28;20262;-78
2022/03/18 17:02:56;;;;;;;3.87;2.47;;;12.90;71.70;;;;;;4975635;28;20216;-79
2022/03/18 17:05:22;;;;;;;3.20;2.00;;;13.00;70.60;;;;;;4975184;28;20279;-77
2022/03/18 17:07:50;;;;;;;4.03;2.17;;;13.00;71.10;;;;;;4959316;28;20274;-76
2022/03/18 17:10:15;;;;;;;2.87;2.07;;;12.90;67.70;;;;;;4959535;28;20915;-76
2022/03/18 17:12:41;;;;;;;3.93;1.90;;;12.60;66.80;;;;;;4990632;28;20218;-76
2022/03/18 17:15:07;;;;;;;2.80;1.90;;;12.20;67.70;;;;;;4991088;28;20278;-76
2022/03/18 17:17:33;;;;;;;3.37;2.23;;;11.90;68.90;;;;;;4974965;28;20188;-80
2022/03/18 17:20:00;;;;;;;4.10;3.03;;;11.70;69.50;;;;;;4974965;28;20556;-76
2022/03/18 17:22:28;;;;;;;5.40;2.53;;;11.60;70.10;;;;;;4974829;28;20223;-79
2022/03/18 17:24:54;;;;;;;4.00;2.53;;;11.40;70.40;;;;;;4990898;28;20562;-78
2022/03/18 17:27:20;;;;;;;2.70;1.90;;;11.20;71.50;;;;;;4974892;28;20634;-79
2022/03/18 17:29:46;;;;;;;2.70;2.13;;;10.90;73.20;;;;;;4991064;28;20190;-76
2022/03/18 17:32:12;;;;;;;4.33;2.77;;;10.80;74.10;;;;;;4990717;28;20191;-77
2022/03/18 17:34:38;;;;;;;5.20;3.37;;;10.80;75.30;;;;;;4974650;28;20219;-77
2022/03/18 17:37:04;;;;;;;6.90;4.00;;;10.90;74.90;;;;;;4974668;28;20234;-77
2022/03/18 17:39:34;;;;;;;4.03;2.50;;;10.90;74.00;;;;;;4990307;28;20183;-76
2022/03/18 17:42:03;;;;;;;5.33;4.50;;;10.80;75.60;;;;;;4958343;28;20226;-77
2022/03/18 17:44:29;;;;;;;8.87;3.73;;;10.60;75.20;;;;;;4989784;28;20608;-77
2022/03/18 17:46:55;;;;;;;13.27;8.33;;;10.50;75.50;;;;;;4973641;28;20670;-76
2022/03/18 17:49:21;;;;;;;12.07;8.27;;;10.30;76.60;;;;;;4974051;28;20186;-76
2022/03/18 17:51:46;;;;;;;7.93;5.40;;;10.20;77.10;;;;;;4957638;28;20213;-78
2022/03/18 17:54:13;;;;;;;6.60;4.10;;;10.10;77.20;;;;;;4957738;28;20588;-77
2022/03/18 17:56:41;;;;;;;5.50;3.20;;;9.90;77.40;;;;;;4989995;28;20187;-76
2022/03/18 17:59:07;;;;;;;5.90;3.07;;;9.70;78.50;;;;;;4973720;28;20194;-77
2022/03/18 18:01:34;;;;;;;8.37;5.90;;;9.60;79.70;;;;;;4973158;28;20290;-77
2022/03/18 18:04:04;;;;;;;5.90;3.90;;;9.40;80.10;;;;;;4989748;28;20781;-76
2022/03/18 18:06:30;;;;;;;3.93;2.60;;;9.50;83.00;;;;;;4991046;28;20179;-76
2022/03/18 18:08:56;;;;;;;5.90;3.00;;;9.50;82.00;;;;;;4958490;28;20210;-76
2022/03/18 18:11:22;;;;;;;5.53;3.57;;;9.40;83.30;;;;;;4973505;28;20214;-76
2022/03/18 18:13:48;;;;;;;5.20;3.37;;;9.20;83.70;;;;;;4990200;28;20216;-77
2022/03/18 18:16:16;;;;;;;12.60;6.30;;;9.00;85.70;;;;;;4973659;28;20179;-77
2022/03/18 18:18:42;;;;;;;26.17;12.70;;;9.00;87.10;;;;;;4990378;28;20178;-77
2022/03/18 18:23:53;;;;;;;20.87;9.50;;;8.80;89.90;;;;;;4976274;28;20212;-76
2022/03/18 18:26:18;;;;;;;8.27;5.10;;;8.80;89.50;;;;;;4957820;28;20179;-77
2022/03/18 18:28:46;;;;;;;8.93;5.57;;;8.70;90.50;;;;;;4957620;28;20538;-77
2022/03/18 18:31:16;;;;;;;14.47;7.70;;;8.60;90.40;;;;;;4989090;28;20174;-80
2022/03/18 18:33:47;;;;;;;9.27;5.63;;;8.60;89.40;;;;;;4974029;28;20206;-78
2022/03/18 18:36:13;;;;;;;5.23;3.00;;;8.50;90.00;;;;;;4989811;28;20172;-77
2022/03/18 18:38:41;;;;;;;5.10;2.90;;;8.50;90.70;;;;;;4989085;28;20549;-77
2022/03/18 18:41:11;;;;;;;8.70;5.77;;;8.50;90.90;;;;;;4973958;28;20176;-77
2022/03/18 18:43:38;;;;;;;15.30;8.83;;;8.40;91.10;;;;;;4973482;28;20205;-77
2022/03/18 18:46:05;;;;;;;6.77;3.30;;;8.30;91.30;;;;;;4973545;28;20327;-77
2022/03/18 18:48:32;;;;;;;4.00;2.97;;;8.30;91.90;;;;;;4989655;28;20648;-76
2022/03/18 18:51:00;;;;;;;4.87;3.90;;;8.10;91.80;;;;;;4989931;28;20182;-76
2022/03/18 18:53:26;;;;;;;3.47;2.40;;;8.20;91.60;;;;;;4957611;28;20205;-78
2022/03/18 18:55:52;;;;;;;3.33;2.67;;;8.20;91.10;;;;;;4975747;28;20206;-78
2022/03/18 18:58:20;;;;;;;3.93;2.10;;;8.20;91.30;;;;;;4992824;28;20194;-77
2022/03/18 19:00:46;;;;;;;4.00;2.53;;;8.00;91.70;;;;;;4983078;28;20206;-76
2022/03/18 19:03:12;;;;;;;6.40;2.90;;;8.10;93.60;;;;;;4969494;28;20836;-76
2022/03/18 19:05:37;;;;;;;4.03;3.20;;;8.00;94.20;;;;;;4969972;28;20197;-76
2022/03/18 19:08:07;;;;;;;5.57;3.40;;;7.90;94.70;;;;;;4945867;28;20180;-79
2022/03/18 19:10:33;;;;;;;5.00;2.60;;;8.00;94.60;;;;;;4973222;28;20541;-77
2022/03/18 19:12:58;;;;;;;3.87;2.70;;;7.90;95.20;;;;;;4988349;28;20218;-77
2022/03/18 19:15:24;;;;;;;13.90;5.97;;;7.90;95.50;;;;;;4989885;28;20180;-75
2022/03/18 19:17:50;;;;;;;897.50;366.50;;;7.90;96.00;;;;;;4971947;28;20447;-75
2022/03/18 19:20:16;;;;;;;1595.07;665.40;;;10.20;99.90;;;;;;4973388;28;20529;-77
2022/03/18 19:22:42;;;;;;;1295.33;569.47;;;11.00;99.90;;;;;;4989737;28;20709;-76